sensor_id;sensor_type;location;lat;lon;timestamp;pressure;altitude;pressure_sealevel;temperature;humidity
14232;BME280;7200;52.194;9.900;2024-03-29T00:00:33;98367.34;;;8.42;100.00
14232;BME280;7200;52.194;9.900;2024-03-29T00:02:59;98361.41;;;8.38;100.00
14232;BME280;7200;52.194;9.900;2024-03-29T00:05:24;98367.53;;;8.38;100.00
14232;BME280;7200;52.194;9.900;2024-03-29T00:07:50;98362.72;;;8.31;100.00
14232;BME280;7200;52.194;9.900;2024-03-29T00:10:15;98368.81;;;8.31;100.00
14232;BME280;7200;52.194;9.900;2024-03-29T00:12:40;98360.38;;;8.26;100.00
14232;BME280;7200;52.194;9.900;2024-03-29T00:15:06;98365.53;;;8.28;100.00
14232;BME280;7200;52.194;9.900;2024-03-29T00:17:32;98367.53;;;8.38;100.00
14232;BME280;7200;52.194;9.900;2024-03-29T00:19:58;98367.34;;;8.42;100.00
14232;BME280;7200;52.194;9.900;2024-03-29T00:22:23;98365.81;;;8.37;100.00
14232;BME280;7200;52.194;9.900;2024-03-29T00:24:48;98366.78;;;8.36;100.00
14232;BME280;7200;52.194;9.900;2024-03-29T00:27:14;98374.75;;;8.35;100.00
14232;BME280;7200;52.194;9.900;2024-03-29T00:29:39;98370.97;;;8.25;100.00
14232;BME280;7200;52.194;9.900;2024-03-29T00:32:05;98371.53;;;8.30;100.00
14232;BME280;7200;52.194;9.900;2024-03-29T00:34:30;98369.28;;;8.24;100.00
14232;BME280;7200;52.194;9.900;2024-03-29T00:36:56;98373.59;;;8.25;100.00
14232;BME280;7200;52.194;9.900;2024-03-29T00:39:21;98362.31;;;8.23;100.00
14232;BME280;7200;52.194;9.900;2024-03-29T00:41:47;98366.09;;;8.33;100.00
14232;BME280;7200;52.194;9.900;2024-03-29T00:44:12;98366.09;;;8.33;100.00
14232;BME280;7200;52.194;9.900;2024-03-29T00:46:38;98362.16;;;8.26;100.00
14232;BME280;7200;52.194;9.900;2024-03-29T00:49:03;98371.91;;;8.24;100.00
14232;BME280;7200;52.194;9.900;2024-03-29T00:51:29;98366.25;;;8.15;100.00
14232;BME280;7200;52.194;9.900;2024-03-29T00:53:54;98368.13;;;8.13;100.00
14232;BME280;7200;52.194;9.900;2024-03-29T00:56:20;98367.97;;;8.16;100.00
14232;BME280;7200;52.194;9.900;2024-03-29T00:58:45;98375.84;;;8.16;100.00
14232;BME280;7200;52.194;9.900;2024-03-29T01:01:11;98378.38;;;8.18;100.00
14232;BME280;7200;52.194;9.900;2024-03-29T01:03:36;98377.34;;;8.21;100.00
14232;BME280;7200;52.194;9.900;2024-03-29T01:06:02;98379.78;;;8.24;100.00
14232;BME280;7200;52.194;9.900;2024-03-29T01:08:27;98377.44;;;8.19;100.00
14232;BME280;7200;52.194;9.900;2024-03-29T01:10:53;98381.56;;;8.09;100.00
14232;BME280;7200;52.194;9.900;2024-03-29T01:13:18;98371.88;;;7.95;100.00
14232;BME280;7200;52.194;9.900;2024-03-29T01:15:44;98378.03;;;7.94;100.00
14232;BME280;7200;52.194;9.900;2024-03-29T01:18:10;98376.09;;;7.97;100.00
14232;BME280;7200;52.194;9.900;2024-03-29T01:20:35;98374.91;;;7.87;100.00
14232;BME280;7200;52.194;9.900;2024-03-29T01:23:01;98383.00;;;7.84;100.00
14232;BME280;7200;52.194;9.900;2024-03-29T01:25:26;98376.56;;;7.74;100.00
14232;BME280;7200;52.194;9.900;2024-03-29T01:27:52;98377.53;;;7.73;100.00
14232;BME280;7200;52.194;9.900;2024-03-29T01:30:18;98376.22;;;7.80;100.00
14232;BME280;7200;52.194;9.900;2024-03-29T01:32:43;98378.19;;;7.76;100.00
14232;BME280;7200;52.194;9.900;2024-03-29T01:35:09;98372.50;;;7.68;100.00
14232;BME280;7200;52.194;9.900;2024-03-29T01:37:35;98372.78;;;7.64;100.00
14232;BME280;7200;52.194;9.900;2024-03-29T01:40:00;98363.56;;;7.56;100.00
14232;BME280;7200;52.194;9.900;2024-03-29T01:42:25;98357.75;;;7.51;100.00
14232;BME280;7200;52.194;9.900;2024-03-29T01:44:51;98351.19;;;7.44;100.00
14232;BME280;7200;52.194;9.900;2024-03-29T01:47:17;98347.72;;;7.28;100.00
14232;BME280;7200;52.194;9.900;2024-03-29T01:49:44;98364.66;;;7.22;100.00
14232;BME280;7200;52.194;9.900;2024-03-29T01:52:10;98371.31;;;7.12;100.00
14232;BME280;7200;52.194;9.900;2024-03-29T01:54:36;98373.53;;;7.04;100.00
14232;BME280;7200;52.194;9.900;2024-03-29T01:57:02;98380.72;;;7.00;100.00
14232;BME280;7200;52.194;9.900;2024-03-29T01:59:28;98375.03;;;7.08;100.00
14232;BME280;7200;52.194;9.900;2024-03-29T02:01:54;98378.44;;;7.10;100.00
14232;BME280;7200;52.194;9.900;2024-03-29T02:04:20;98392.06;;;7.16;100.00
14232;BME280;7200;52.194;9.900;2024-03-29T02:06:46;98391.97;;;7.18;100.00
14232;BME280;7200;52.194;9.900;2024-03-29T02:09:12;98395.69;;;7.14;100.00
14232;BME280;7200;52.194;9.900;2024-03-29T02:11:37;98400.09;;;7.13;100.00
14232;BME280;7200;52.194;9.900;2024-03-29T02:14:03;98403.53;;;7.14;100.00
14232;BME280;7200;52.194;9.900;2024-03-29T02:16:31;98412.97;;;7.18;100.00
14232;BME280;7200;52.194;9.900;2024-03-29T02:18:56;98425.72;;;7.24;100.00
14232;BME280;7200;52.194;9.900;2024-03-29T02:21:21;98419.31;;;7.30;100.00
14232;BME280;7200;52.194;9.900;2024-03-29T02:23:47;98411.50;;;7.28;100.00
14232;BME280;7200;52.194;9.900;2024-03-29T02:26:15;98413.88;;;7.49;100.00
14232;BME280;7200;52.194;9.900;2024-03-29T02:28:41;98390.50;;;7.60;100.00
14232;BME280;7200;52.194;9.900;2024-03-29T02:31:06;98385.31;;;7.74;100.00
14232;BME280;7200;52.194;9.900;2024-03-29T02:33:33;98391.31;;;7.76;100.00
14232;BME280;7200;52.194;9.900;2024-03-29T02:35:58;98392.06;;;7.78;100.00
14232;BME280;7200;52.194;9.900;2024-03-29T02:38:24;98387.81;;;7.76;100.00
14232;BME280;7200;52.194;9.900;2024-03-29T02:40:49;98392.59;;;7.69;100.00
14232;BME280;7200;52.194;9.900;2024-03-29T02:43:14;98400.81;;;7.63;100.00
14232;BME280;7200;52.194;9.900;2024-03-29T02:45:40;98396.81;;;7.72;100.00
14232;BME280;7200;52.194;9.900;2024-03-29T02:48:05;98395.97;;;7.71;100.00
14232;BME280;7200;52.194;9.900;2024-03-29T02:50:31;98398.09;;;7.65;100.00
14232;BME280;7200;52.194;9.900;2024-03-29T02:52:56;98379.25;;;7.58;100.00
14232;BME280;7200;52.194;9.900;2024-03-29T02:55:22;98380.34;;;7.54;100.00
14232;BME280;7200;52.194;9.900;2024-03-29T02:57:47;98362.44;;;7.46;100.00
14232;BME280;7200;52.194;9.900;2024-03-29T03:00:13;98359.88;;;7.45;100.00
14232;BME280;7200;52.194;9.900;2024-03-29T03:02:39;98347.59;;;7.45;100.00
14232;BME280;7200;52.194;9.900;2024-03-29T03:05:05;98332.44;;;7.50;100.00
14232;BME280;7200;52.194;9.900;2024-03-29T03:07:31;98331.69;;;7.48;100.00
14232;BME280;7200;52.194;9.900;2024-03-29T03:10:15;98334.31;;;7.48;100.00
14232;BME280;7200;52.194;9.900;2024-03-29T03:12:59;98339.66;;;7.47;100.00
14232;BME280;7200;52.194;9.900;2024-03-29T03:15:24;98331.09;;;7.43;100.00
14232;BME280;7200;52.194;9.900;2024-03-29T03:17:50;98334.00;;;7.38;100.00
14232;BME280;7200;52.194;9.900;2024-03-29T03:20:15;98340.78;;;7.27;100.00
14232;BME280;7200;52.194;9.900;2024-03-29T03:22:41;98355.94;;;7.21;100.00
14232;BME280;7200;52.194;9.900;2024-03-29T03:25:07;98364.41;;;7.11;100.00
14232;BME280;7200;52.194;9.900;2024-03-29T03:27:32;98370.13;;;7.17;100.00
14232;BME280;7200;52.194;9.900;2024-03-29T03:29:58;98367.34;;;7.20;100.00
14232;BME280;7200;52.194;9.900;2024-03-29T03:32:23;98371.66;;;7.37;100.00
14232;BME280;7200;52.194;9.900;2024-03-29T03:34:48;98374.88;;;7.43;100.00
14232;BME280;7200;52.194;9.900;2024-03-29T03:37:14;98370.69;;;7.54;100.00
14232;BME280;7200;52.194;9.900;2024-03-29T03:39:39;98362.88;;;7.69;100.00
14232;BME280;7200;52.194;9.900;2024-03-29T03:42:04;98364.88;;;7.79;100.00
14232;BME280;7200;52.194;9.900;2024-03-29T03:44:30;98350.44;;;7.87;100.00
14232;BME280;7200;52.194;9.900;2024-03-29T03:46:55;98341.75;;;7.86;100.00
14232;BME280;7200;52.194;9.900;2024-03-29T03:49:21;98356.13;;;7.95;100.00
14232;BME280;7200;52.194;9.900;2024-03-29T03:51:46;98353.50;;;7.95;100.00
14232;BME280;7200;52.194;9.900;2024-03-29T03:54:11;98352.44;;;7.97;100.00
14232;BME280;7200;52.194;9.900;2024-03-29T03:56:37;98351.78;;;7.94;100.00
14232;BME280;7200;52.194;9.900;2024-03-29T03:59:02;98355.91;;;7.98;100.00
14232;BME280;7200;52.194;9.900;2024-03-29T04:01:27;98355.81;;;7.99;100.00
14232;BME280;7200;52.194;9.900;2024-03-29T04:03:53;98364.63;;;7.98;100.00
14232;BME280;7200;52.194;9.900;2024-03-29T04:06:18;98359.88;;;8.05;100.00
14232;BME280;7200;52.194;9.900;2024-03-29T04:08:44;98350.50;;;8.01;100.00
14232;BME280;7200;52.194;9.900;2024-03-29T04:11:09;98349.88;;;8.12;100.00
14232;BME280;7200;52.194;9.900;2024-03-29T04:13:35;98343.28;;;8.19;100.00
14232;BME280;7200;52.194;9.900;2024-03-29T04:16:05;98331.19;;;8.16;100.00
14232;BME280;7200;52.194;9.900;2024-03-29T04:18:31;98324.88;;;8.19;100.00
14232;BME280;7200;52.194;9.900;2024-03-29T04:20:58;98336.16;;;8.21;100.00
14232;BME280;7200;52.194;9.900;2024-03-29T04:23:23;98342.28;;;8.22;100.00
14232;BME280;7200;52.194;9.900;2024-03-29T04:25:56;98338.50;;;8.26;100.00
14232;BME280;7200;52.194;9.900;2024-03-29T04:28:21;98342.63;;;8.30;100.00
14232;BME280;7200;52.194;9.900;2024-03-29T04:31:13;98341.97;;;8.26;100.00
14232;BME280;7200;52.194;9.900;2024-03-29T04:33:39;98344.59;;;8.26;100.00
14232;BME280;7200;52.194;9.900;2024-03-29T04:36:04;98342.34;;;8.20;100.00
14232;BME280;7200;52.194;9.900;2024-03-29T04:38:31;98351.44;;;8.14;100.00
14232;BME280;7200;52.194;9.900;2024-03-29T04:40:58;98353.41;;;8.11;100.00
14232;BME280;7200;52.194;9.900;2024-03-29T04:43:25;98354.00;;;8.16;100.00
14232;BME280;7200;52.194;9.900;2024-03-29T04:46:01;98359.25;;;8.30;100.00
14232;BME280;7200;52.194;9.900;2024-03-29T04:48:27;98361.41;;;8.38;100.00
14232;BME280;7200;52.194;9.900;2024-03-29T04:50:52;98369.88;;;8.29;100.00
14232;BME280;7200;52.194;9.900;2024-03-29T04:53:17;98376.53;;;8.34;100.00
14232;BME280;7200;52.194;9.900;2024-03-29T04:55:43;98380.75;;;8.37;100.00
14232;BME280;7200;52.194;9.900;2024-03-29T04:58:10;98383.03;;;8.43;100.00
14232;BME280;7200;52.194;9.900;2024-03-29T05:00:35;98395.91;;;8.48;100.00
14232;BME280;7200;52.194;9.900;2024-03-29T05:03:00;98397.09;;;8.56;100.00
14232;BME280;7200;52.194;9.900;2024-03-29T05:05:26;98386.81;;;8.53;100.00
14232;BME280;7200;52.194;9.900;2024-03-29T05:07:51;98399.47;;;8.61;100.00
14232;BME280;7200;52.194;9.900;2024-03-29T05:10:16;98411.31;;;8.68;100.00
14232;BME280;7200;52.194;9.900;2024-03-29T05:12:43;98421.72;;;8.84;100.00
14232;BME280;7200;52.194;9.900;2024-03-29T05:15:08;98433.16;;;8.83;100.00
14232;BME280;7200;52.194;9.900;2024-03-29T05:17:34;98447.44;;;8.93;100.00
14232;BME280;7200;52.194;9.900;2024-03-29T05:19:59;98436.44;;;9.01;100.00
14232;BME280;7200;52.194;9.900;2024-03-29T05:22:25;98441.22;;;9.09;100.00
14232;BME280;7200;52.194;9.900;2024-03-29T05:24:53;98446.59;;;9.22;100.00
14232;BME280;7200;52.194;9.900;2024-03-29T05:27:18;98444.38;;;9.28;100.00
14232;BME280;7200;52.194;9.900;2024-03-29T05:29:44;98445.75;;;9.21;100.00
14232;BME280;7200;52.194;9.900;2024-03-29T05:32:09;98462.94;;;9.12;100.00
14232;BME280;7200;52.194;9.900;2024-03-29T05:34:35;98466.53;;;8.97;100.00
14232;BME280;7200;52.194;9.900;2024-03-29T05:37:00;98480.69;;;8.94;100.00
14232;BME280;7200;52.194;9.900;2024-03-29T05:39:25;98495.16;;;8.87;100.00
14232;BME280;7200;52.194;9.900;2024-03-29T05:41:51;98501.06;;;8.76;100.00
14232;BME280;7200;52.194;9.900;2024-03-29T05:44:16;98495.13;;;8.58;100.00
14232;BME280;7200;52.194;9.900;2024-03-29T05:46:42;98499.22;;;8.48;100.00
14232;BME280;7200;52.194;9.900;2024-03-29T05:49:07;98496.53;;;8.50;100.00
14232;BME280;7200;52.194;9.900;2024-03-29T05:51:33;98496.28;;;8.38;100.00
14232;BME280;7200;52.194;9.900;2024-03-29T05:54:01;98493.97;;;8.32;100.00
14232;BME280;7200;52.194;9.900;2024-03-29T05:56:29;98489.31;;;8.37;100.00
14232;BME280;7200;52.194;9.900;2024-03-29T05:58:54;98488.38;;;8.38;100.00
14232;BME280;7200;52.194;9.900;2024-03-29T06:01:19;98489.75;;;8.30;100.00
14232;BME280;7200;52.194;9.900;2024-03-29T06:03:45;98491.81;;;8.25;100.00
14232;BME280;7200;52.194;9.900;2024-03-29T06:06:10;98501.75;;;8.19;100.00
14232;BME280;7200;52.194;9.900;2024-03-29T06:08:43;98491.69;;;8.12;100.00
14232;BME280;7200;52.194;9.900;2024-03-29T06:11:08;98484.91;;;8.08;100.00
14232;BME280;7200;52.194;9.900;2024-03-29T06:13:33;98484.41;;;8.01;100.00
14232;BME280;7200;52.194;9.900;2024-03-29T06:16:17;98479.19;;;7.85;100.00
14232;BME280;7200;52.194;9.900;2024-03-29T06:19:01;98456.59;;;7.83;100.00
14232;BME280;7200;52.194;9.900;2024-03-29T06:21:27;98451.41;;;7.81;100.00
14232;BME280;7200;52.194;9.900;2024-03-29T06:23:52;98447.00;;;7.82;100.00
14232;BME280;7200;52.194;9.900;2024-03-29T06:26:18;98446.53;;;7.75;100.00
14232;BME280;7200;52.194;9.900;2024-03-29T06:28:43;98434.22;;;7.75;100.00
14232;BME280;7200;52.194;9.900;2024-03-29T06:31:08;98429.34;;;7.69;100.00
14232;BME280;7200;52.194;9.900;2024-03-29T06:33:34;98422.91;;;7.59;100.00
14232;BME280;7200;52.194;9.900;2024-03-29T06:35:59;98398.09;;;7.65;100.00
14232;BME280;7200;52.194;9.900;2024-03-29T06:38:24;98386.94;;;7.61;100.00
14232;BME280;7200;52.194;9.900;2024-03-29T06:40:49;98386.66;;;7.66;100.00
14232;BME280;7200;52.194;9.900;2024-03-29T06:43:15;98379.72;;;7.65;100.00
14232;BME280;7200;52.194;9.900;2024-03-29T06:45:41;98369.81;;;7.70;100.00
14232;BME280;7200;52.194;9.900;2024-03-29T06:48:08;98371.22;;;7.75;100.00
14232;BME280;7200;52.194;9.900;2024-03-29T06:50:34;98341.91;;;7.83;100.00
14232;BME280;7200;52.194;9.900;2024-03-29T06:53:00;98333.06;;;7.70;100.00
14232;BME280;7200;52.194;9.900;2024-03-29T06:55:25;98333.16;;;7.68;100.00
14232;BME280;7200;52.194;9.900;2024-03-29T06:57:50;98324.31;;;7.55;100.00
14232;BME280;7200;52.194;9.900;2024-03-29T07:00:16;98312.88;;;7.56;100.00
14232;BME280;7200;52.194;9.900;2024-03-29T07:02:42;98292.50;;;7.45;100.00
14232;BME280;7200;52.194;9.900;2024-03-29T07:05:08;98291.75;;;7.43;100.00
14232;BME280;7200;52.194;9.900;2024-03-29T07:07:36;98293.69;;;7.55;100.00
14232;BME280;7200;52.194;9.900;2024-03-29T07:10:02;98287.84;;;7.50;100.00
14232;BME280;7200;52.194;9.900;2024-03-29T07:12:27;98305.63;;;7.45;100.00
14232;BME280;7200;52.194;9.900;2024-03-29T07:14:53;98304.34;;;7.52;100.00
14232;BME280;7200;52.194;9.900;2024-03-29T07:17:18;98286.13;;;7.49;100.00
14232;BME280;7200;52.194;9.900;2024-03-29T07:19:43;98285.03;;;7.53;100.00
14232;BME280;7200;52.194;9.900;2024-03-29T07:22:09;98262.28;;;7.54;100.00
14232;BME280;7200;52.194;9.900;2024-03-29T07:24:34;98266.66;;;7.53;100.00
14232;BME280;7200;52.194;9.900;2024-03-29T07:26:59;98262.44;;;7.51;100.00
14232;BME280;7200;52.194;9.900;2024-03-29T07:29:25;98262.66;;;7.62;100.00
14232;BME280;7200;52.194;9.900;2024-03-29T07:31:50;98260.41;;;7.70;100.00
14232;BME280;7200;52.194;9.900;2024-03-29T07:34:15;98252.66;;;7.69;100.00
14232;BME280;7200;52.194;9.900;2024-03-29T07:36:41;98245.81;;;7.80;100.00
14232;BME280;7200;52.194;9.900;2024-03-29T07:39:06;98245.44;;;7.87;100.00
14232;BME280;7200;52.194;9.900;2024-03-29T07:41:32;98236.91;;;7.83;100.00
14232;BME280;7200;52.194;9.900;2024-03-29T07:43:57;98225.94;;;7.91;100.00
14232;BME280;7200;52.194;9.900;2024-03-29T07:46:33;98233.47;;;7.97;100.00
14232;BME280;7200;52.194;9.900;2024-03-29T07:48:58;98225.09;;;7.90;100.00
14232;BME280;7200;52.194;9.900;2024-03-29T07:51:24;98238.72;;;7.97;100.00
14232;BME280;7200;52.194;9.900;2024-03-29T07:53:49;98231.56;;;7.99;100.00
14232;BME280;7200;52.194;9.900;2024-03-29T07:56:15;98248.91;;;8.02;100.00
14232;BME280;7200;52.194;9.900;2024-03-29T07:58:41;98238.50;;;8.14;100.00
14232;BME280;7200;52.194;9.900;2024-03-29T08:01:06;98236.72;;;8.15;100.00
14232;BME280;7200;52.194;9.900;2024-03-29T08:03:32;98238.22;;;8.33;100.00
14232;BME280;7200;52.194;9.900;2024-03-29T08:06:03;98237.28;;;8.49;100.00
14232;BME280;7200;52.194;9.900;2024-03-29T08:08:32;98240.81;;;8.62;100.00
14232;BME280;7200;52.194;9.900;2024-03-29T08:10:57;98223.56;;;8.58;100.00
14232;BME280;7200;52.194;9.900;2024-03-29T08:13:24;98234.31;;;8.68;100.00
14232;BME280;7200;52.194;9.900;2024-03-29T08:15:56;98235.72;;;9.01;100.00
14232;BME280;7200;52.194;9.900;2024-03-29T08:18:21;98220.72;;;9.15;100.00
14232;BME280;7200;52.194;9.900;2024-03-29T08:20:47;98214.31;;;9.20;100.00
14232;BME280;7200;52.194;9.900;2024-03-29T08:23:12;98205.47;;;9.33;100.00
14232;BME280;7200;52.194;9.900;2024-03-29T08:25:38;98213.28;;;9.35;100.00
14232;BME280;7200;52.194;9.900;2024-03-29T08:28:03;98214.34;;;9.45;100.00
14232;BME280;7200;52.194;9.900;2024-03-29T08:30:29;98189.53;;;9.49;100.00
14232;BME280;7200;52.194;9.900;2024-03-29T08:33:01;98190.34;;;9.50;100.00
14232;BME280;7200;52.194;9.900;2024-03-29T08:35:31;98207.81;;;9.51;100.00
14232;BME280;7200;52.194;9.900;2024-03-29T08:37:56;98202.03;;;9.59;100.00
14232;BME280;7200;52.194;9.900;2024-03-29T08:40:22;98209.00;;;9.60;100.00
14232;BME280;7200;52.194;9.900;2024-03-29T08:42:49;98208.38;;;9.69;100.00
14232;BME280;7200;52.194;9.900;2024-03-29T08:45:14;98211.53;;;9.74;100.00
14232;BME280;7200;52.194;9.900;2024-03-29T08:47:40;98201.19;;;9.84;100.00
14232;BME280;7200;52.194;9.900;2024-03-29T08:50:05;98206.34;;;9.98;100.00
14232;BME280;7200;52.194;9.900;2024-03-29T08:52:30;98215.09;;;9.99;100.00
14232;BME280;7200;52.194;9.900;2024-03-29T08:54:56;98225.84;;;9.96;100.00
14232;BME280;7200;52.194;9.900;2024-03-29T08:57:21;98211.84;;;9.95;100.00
14232;BME280;7200;52.194;9.900;2024-03-29T08:59:46;98228.28;;;9.86;100.00
14232;BME280;7200;52.194;9.900;2024-03-29T09:02:12;98236.59;;;9.92;100.00
14232;BME280;7200;52.194;9.900;2024-03-29T09:04:37;98245.56;;;10.03;100.00
14232;BME280;7200;52.194;9.900;2024-03-29T09:07:03;98237.41;;;10.19;100.00
14232;BME280;7200;52.194;9.900;2024-03-29T09:09:29;98251.94;;;10.24;100.00
14232;BME280;7200;52.194;9.900;2024-03-29T09:11:55;98242.50;;;10.35;100.00
14232;BME280;7200;52.194;9.900;2024-03-29T09:14:21;98256.59;;;10.33;100.00
14232;BME280;7200;52.194;9.900;2024-03-29T09:16:46;98227.69;;;10.45;100.00
14232;BME280;7200;52.194;9.900;2024-03-29T09:19:14;98234.84;;;10.30;100.00
14232;BME280;7200;52.194;9.900;2024-03-29T09:21:40;98225.22;;;10.55;100.00
14232;BME280;7200;52.194;9.900;2024-03-29T09:24:06;98220.75;;;10.68;100.00
14232;BME280;7200;52.194;9.900;2024-03-29T09:26:32;98231.19;;;10.69;100.00
14232;BME280;7200;52.194;9.900;2024-03-29T09:28:57;98233.47;;;10.87;100.00
14232;BME280;7200;52.194;9.900;2024-03-29T09:31:23;98244.94;;;10.99;100.00
14232;BME280;7200;52.194;9.900;2024-03-29T09:33:48;98230.91;;;10.98;100.00
14232;BME280;7200;52.194;9.900;2024-03-29T09:36:20;98225.38;;;11.01;100.00
14232;BME280;7200;52.194;9.900;2024-03-29T09:38:45;98225.22;;;10.91;100.00
14232;BME280;7200;52.194;9.900;2024-03-29T09:41:14;98229.72;;;11.02;100.00
14232;BME280;7200;52.194;9.900;2024-03-29T09:43:44;98221.13;;;11.12;100.00
14232;BME280;7200;52.194;9.900;2024-03-29T09:46:10;98225.16;;;11.28;100.00
14232;BME280;7200;52.194;9.900;2024-03-29T09:48:37;98224.09;;;11.42;100.00
14232;BME280;7200;52.194;9.900;2024-03-29T09:51:04;98224.47;;;11.38;100.00
14232;BME280;7200;52.194;9.900;2024-03-29T09:53:32;98225.97;;;11.29;100.00
14232;BME280;7200;52.194;9.900;2024-03-29T09:55:58;98232.75;;;11.44;100.00
14232;BME280;7200;52.194;9.900;2024-03-29T09:58:24;98236.72;;;11.50;100.00
14232;BME280;7200;52.194;9.900;2024-03-29T10:00:49;98237.94;;;11.57;100.00
14232;BME280;7200;52.194;9.900;2024-03-29T10:03:15;98252.09;;;11.56;100.00
14232;BME280;7200;52.194;9.900;2024-03-29T10:05:45;98245.78;;;11.70;100.00
14232;BME280;7200;52.194;9.900;2024-03-29T10:08:11;98245.94;;;11.44;100.00
14232;BME280;7200;52.194;9.900;2024-03-29T10:10:37;98253.78;;;11.57;100.00
14232;BME280;7200;52.194;9.900;2024-03-29T10:13:02;98252.25;;;11.66;100.00
14232;BME280;7200;52.194;9.900;2024-03-29T10:15:29;98255.69;;;11.91;100.00
14232;BME280;7200;52.194;9.900;2024-03-29T10:17:57;98256.16;;;11.96;100.00
14232;BME280;7200;52.194;9.900;2024-03-29T10:20:23;98251.50;;;11.99;100.00
14232;BME280;7200;52.194;9.900;2024-03-29T10:22:48;98251.69;;;11.85;100.00
14232;BME280;7200;52.194;9.900;2024-03-29T10:25:14;98238.66;;;11.95;100.00
14232;BME280;7200;52.194;9.900;2024-03-29T10:27:40;98244.88;;;12.05;100.00
14232;BME280;7200;52.194;9.900;2024-03-29T10:30:09;98254.88;;;12.24;100.00
14232;BME280;7200;52.194;9.900;2024-03-29T10:32:39;98267.75;;;12.29;100.00
14232;BME280;7200;52.194;9.900;2024-03-29T10:35:08;98252.38;;;12.22;100.00
14232;BME280;7200;52.194;9.900;2024-03-29T10:37:35;98256.19;;;12.30;100.00
14232;BME280;7200;52.194;9.900;2024-03-29T10:40:08;98254.41;;;12.53;100.00
14232;BME280;7200;52.194;9.900;2024-03-29T10:42:36;98266.16;;;12.49;100.00
14232;BME280;7200;52.194;9.900;2024-03-29T10:45:02;98256.78;;;12.56;100.00
14232;BME280;7200;52.194;9.900;2024-03-29T10:47:30;98267.22;;;12.69;100.00
14232;BME280;7200;52.194;9.900;2024-03-29T10:49:56;98281.53;;;12.77;100.00
14232;BME280;7200;52.194;9.900;2024-03-29T10:52:24;98274.56;;;12.76;100.00
14232;BME280;7200;52.194;9.900;2024-03-29T10:54:50;98269.50;;;12.62;100.00
14232;BME280;7200;52.194;9.900;2024-03-29T10:57:22;98276.94;;;12.91;100.00
14232;BME280;7200;52.194;9.900;2024-03-29T11:00:16;98276.69;;;12.82;100.00
14232;BME280;7200;52.194;9.900;2024-03-29T11:05:18;98296.28;;;13.02;100.00
14232;BME280;7200;52.194;9.900;2024-03-29T11:07:44;98286.22;;;12.74;100.00
14232;BME280;7200;52.194;9.900;2024-03-29T11:10:33;98287.25;;;12.94;100.00
14232;BME280;7200;52.194;9.900;2024-03-29T11:15:49;98302.53;;;13.01;100.00
14232;BME280;7200;52.194;9.900;2024-03-29T11:18:16;98300.66;;;12.92;100.00
14232;BME280;7200;52.194;9.900;2024-03-29T11:20:44;98301.59;;;12.91;100.00
14232;BME280;7200;52.194;9.900;2024-03-29T11:23:15;98313.94;;;13.13;100.00
14232;BME280;7200;52.194;9.900;2024-03-29T11:25:52;98309.56;;;13.23;100.00
14232;BME280;7200;52.194;9.900;2024-03-29T11:28:31;98315.13;;;13.20;100.00
14232;BME280;7200;52.194;9.900;2024-03-29T11:31:04;98316.69;;;13.34;100.00
14232;BME280;7200;52.194;9.900;2024-03-29T11:33:31;98322.69;;;13.36;100.00
14232;BME280;7200;52.194;9.900;2024-03-29T11:36:08;98304.03;;;13.38;100.00
14232;BME280;7200;52.194;9.900;2024-03-29T11:38:35;98302.56;;;13.45;100.00
14232;BME280;7200;52.194;9.900;2024-03-29T11:43:33;98308.94;;;14.17;100.00
14232;BME280;7200;52.194;9.900;2024-03-29T11:46:01;98297.25;;;14.29;100.00
14232;BME280;7200;52.194;9.900;2024-03-29T11:48:28;98298.19;;;14.49;100.00
14232;BME280;7200;52.194;9.900;2024-03-29T11:50:54;98294.72;;;14.49;100.00
14232;BME280;7200;52.194;9.900;2024-03-29T11:53:20;98313.94;;;14.62;100.00
14232;BME280;7200;52.194;9.900;2024-03-29T11:55:47;98322.91;;;14.50;100.00
14232;BME280;7200;52.194;9.900;2024-03-29T11:58:18;98311.69;;;14.67;100.00
14232;BME280;7200;52.194;9.900;2024-03-29T12:00:43;98321.13;;;14.81;100.00
14232;BME280;7200;52.194;9.900;2024-03-29T12:03:10;98311.56;;;14.38;100.00
14232;BME280;7200;52.194;9.900;2024-03-29T12:05:36;98310.81;;;14.26;100.00
14232;BME280;7200;52.194;9.900;2024-03-29T12:08:01;98314.81;;;14.51;100.00
14232;BME280;7200;52.194;9.900;2024-03-29T12:10:30;98308.41;;;14.85;100.00
14232;BME280;7200;52.194;9.900;2024-03-29T12:12:59;98300.28;;;14.76;100.00
14232;BME280;7200;52.194;9.900;2024-03-29T12:15:27;98322.78;;;14.82;100.00
14232;BME280;7200;52.194;9.900;2024-03-29T12:18:13;98324.25;;;14.96;100.00
14232;BME280;7200;52.194;9.900;2024-03-29T12:20:41;98322.00;;;15.01;100.00
14232;BME280;7200;52.194;9.900;2024-03-29T12:23:09;98329.81;;;14.93;100.00
14232;BME280;7200;52.194;9.900;2024-03-29T12:25:36;98319.28;;;14.82;100.00
14232;BME280;7200;52.194;9.900;2024-03-29T12:28:03;98315.03;;;14.38;100.00
14232;BME280;7200;52.194;9.900;2024-03-29T12:30:28;98318.78;;;14.57;100.00
14232;BME280;7200;52.194;9.900;2024-03-29T12:33:02;98329.31;;;14.68;100.00
14232;BME280;7200;52.194;9.900;2024-03-29T12:35:28;98326.41;;;14.71;100.00
14232;BME280;7200;52.194;9.900;2024-03-29T12:38:00;98322.66;;;14.53;100.00
14232;BME280;7200;52.194;9.900;2024-03-29T12:40:27;98339.09;;;14.68;100.00
14232;BME280;7200;52.194;9.900;2024-03-29T12:42:55;98336.34;;;14.79;100.00
14232;BME280;7200;52.194;9.900;2024-03-29T12:45:22;98354.13;;;14.57;100.00
14232;BME280;7200;52.194;9.900;2024-03-29T12:47:48;98356.31;;;14.31;100.00
14232;BME280;7200;52.194;9.900;2024-03-29T12:52:58;98365.44;;;14.90;100.00
14232;BME280;7200;52.194;9.900;2024-03-29T12:55:25;98356.56;;;15.11;100.00
14232;BME280;7200;52.194;9.900;2024-03-29T12:57:53;98371.28;;;15.34;100.00
14232;BME280;7200;52.194;9.900;2024-03-29T13:00:22;98365.25;;;15.23;100.00
14232;BME280;7200;52.194;9.900;2024-03-29T13:02:47;98350.75;;;15.46;100.00
14232;BME280;7200;52.194;9.900;2024-03-29T13:05:13;98364.38;;;15.12;100.00
14232;BME280;7200;52.194;9.900;2024-03-29T13:07:39;98380.66;;;15.29;100.00
14232;BME280;7200;52.194;9.900;2024-03-29T13:10:04;98388.28;;;15.12;100.00
14232;BME280;7200;52.194;9.900;2024-03-29T13:12:39;98385.69;;;14.91;100.00
14232;BME280;7200;52.194;9.900;2024-03-29T13:15:18;98402.72;;;14.79;100.00